sensor_id;sensor_type;location;lat;lon;timestamp;temperature;humidity
27667;DHT22;15074;50.940;5.282;2022-11-25T00:01:12;10.10;99.90
27667;DHT22;15074;50.940;5.282;2022-11-25T00:03:39;10.10;99.90
27667;DHT22;15074;50.940;5.282;2022-11-25T00:06:09;10.10;99.90
27667;DHT22;15074;50.940;5.282;2022-11-25T00:08:35;10.20;99.90
27667;DHT22;15074;50.940;5.282;2022-11-25T00:11:02;10.20;99.90
27667;DHT22;15074;50.940;5.282;2022-11-25T00:13:28;10.20;99.90
27667;DHT22;15074;50.940;5.282;2022-11-25T00:15:54;10.20;99.90
27667;DHT22;15074;50.940;5.282;2022-11-25T00:18:19;10.20;99.90
27667;DHT22;15074;50.940;5.282;2022-11-25T00:20:45;10.20;99.90
27667;DHT22;15074;50.940;5.282;2022-11-25T00:23:11;10.20;99.90
27667;DHT22;15074;50.940;5.282;2022-11-25T00:25:37;10.20;99.90
27667;DHT22;15074;50.940;5.282;2022-11-25T00:28:02;10.20;99.90
27667;DHT22;15074;50.940;5.282;2022-11-25T00:30:28;10.20;99.90
27667;DHT22;15074;50.940;5.282;2022-11-25T00:32:54;10.20;99.90
27667;DHT22;15074;50.940;5.282;2022-11-25T00:35:20;10.20;99.90
27667;DHT22;15074;50.940;5.282;2022-11-25T00:37:46;10.20;99.90
27667;DHT22;15074;50.940;5.282;2022-11-25T00:40:12;10.30;99.90
27667;DHT22;15074;50.940;5.282;2022-11-25T00:42:38;10.30;99.90
27667;DHT22;15074;50.940;5.282;2022-11-25T00:45:22;10.30;99.90
27667;DHT22;15074;50.940;5.282;2022-11-25T00:47:47;10.40;99.90
27667;DHT22;15074;50.940;5.282;2022-11-25T00:50:13;10.40;99.90
27667;DHT22;15074;50.940;5.282;2022-11-25T00:52:38;10.40;99.90
27667;DHT22;15074;50.940;5.282;2022-11-25T00:55:04;10.40;99.90
27667;DHT22;15074;50.940;5.282;2022-11-25T00:57:30;10.40;99.90
27667;DHT22;15074;50.940;5.282;2022-11-25T00:59:56;10.40;99.90
27667;DHT22;15074;50.940;5.282;2022-11-25T01:02:21;10.50;99.90
27667;DHT22;15074;50.940;5.282;2022-11-25T01:04:48;10.50;99.90
27667;DHT22;15074;50.940;5.282;2022-11-25T01:07:14;10.40;99.90
27667;DHT22;15074;50.940;5.282;2022-11-25T01:09:40;10.50;99.90
27667;DHT22;15074;50.940;5.282;2022-11-25T01:12:06;10.60;99.90
27667;DHT22;15074;50.940;5.282;2022-11-25T01:14:31;10.60;99.90
27667;DHT22;15074;50.940;5.282;2022-11-25T01:16:57;10.50;99.90
27667;DHT22;15074;50.940;5.282;2022-11-25T01:19:23;10.50;99.90
27667;DHT22;15074;50.940;5.282;2022-11-25T01:21:48;10.40;99.90
27667;DHT22;15074;50.940;5.282;2022-11-25T01:24:15;10.40;99.90
27667;DHT22;15074;50.940;5.282;2022-11-25T01:26:42;10.50;99.90
27667;DHT22;15074;50.940;5.282;2022-11-25T01:29:12;10.50;99.90
27667;DHT22;15074;50.940;5.282;2022-11-25T01:31:39;10.50;99.90
27667;DHT22;15074;50.940;5.282;2022-11-25T01:36:38;10.30;99.90
27667;DHT22;15074;50.940;5.282;2022-11-25T01:39:05;10.30;99.90
27667;DHT22;15074;50.940;5.282;2022-11-25T01:41:32;10.40;99.90
27667;DHT22;15074;50.940;5.282;2022-11-25T01:44:13;10.50;99.90
27667;DHT22;15074;50.940;5.282;2022-11-25T01:46:53;10.50;99.90
27667;DHT22;15074;50.940;5.282;2022-11-25T01:52:15;10.40;99.90
27667;DHT22;15074;50.940;5.282;2022-11-25T01:55:06;10.40;99.90
27667;DHT22;15074;50.940;5.282;2022-11-25T01:57:41;10.30;99.90
27667;DHT22;15074;50.940;5.282;2022-11-25T02:00:08;10.40;99.90
27667;DHT22;15074;50.940;5.282;2022-11-25T02:02:34;10.40;99.90
27667;DHT22;15074;50.940;5.282;2022-11-25T02:05:03;10.40;99.90
27667;DHT22;15074;50.940;5.282;2022-11-25T02:07:39;10.40;99.90
27667;DHT22;15074;50.940;5.282;2022-11-25T02:10:10;10.40;99.90
27667;DHT22;15074;50.940;5.282;2022-11-25T02:12:40;10.30;99.90
27667;DHT22;15074;50.940;5.282;2022-11-25T02:15:06;10.30;99.90
27667;DHT22;15074;50.940;5.282;2022-11-25T02:17:33;10.20;99.90
27667;DHT22;15074;50.940;5.282;2022-11-25T02:20:06;10.10;99.90
27667;DHT22;15074;50.940;5.282;2022-11-25T02:25:16;9.90;99.90
27667;DHT22;15074;50.940;5.282;2022-11-25T02:27:45;9.70;99.90
27667;DHT22;15074;50.940;5.282;2022-11-25T02:30:12;9.60;99.90
27667;DHT22;15074;50.940;5.282;2022-11-25T02:32:45;9.40;99.90
27667;DHT22;15074;50.940;5.282;2022-11-25T02:35:55;9.40;99.90
27667;DHT22;15074;50.940;5.282;2022-11-25T02:40:51;9.30;99.90
27667;DHT22;15074;50.940;5.282;2022-11-25T02:43:17;9.10;99.90
27667;DHT22;15074;50.940;5.282;2022-11-25T02:46:03;9.20;99.90
27667;DHT22;15074;50.940;5.282;2022-11-25T02:48:31;9.20;99.90
27667;DHT22;15074;50.940;5.282;2022-11-25T02:50:57;9.20;99.90
27667;DHT22;15074;50.940;5.282;2022-11-25T02:53:23;9.10;99.90
27667;DHT22;15074;50.940;5.282;2022-11-25T02:55:49;9.10;99.90
27667;DHT22;15074;50.940;5.282;2022-11-25T02:58:15;9.10;99.90
27667;DHT22;15074;50.940;5.282;2022-11-25T03:00:41;9.20;99.90
27667;DHT22;15074;50.940;5.282;2022-11-25T03:03:07;9.20;99.90
27667;DHT22;15074;50.940;5.282;2022-11-25T03:05:33;9.10;99.90
27667;DHT22;15074;50.940;5.282;2022-11-25T03:07:59;9.10;99.90
27667;DHT22;15074;50.940;5.282;2022-11-25T03:10:25;9.00;99.90
27667;DHT22;15074;50.940;5.282;2022-11-25T03:12:51;8.90;99.90
27667;DHT22;15074;50.940;5.282;2022-11-25T03:15:17;8.80;99.90
27667;DHT22;15074;50.940;5.282;2022-11-25T03:17:43;8.80;99.90
27667;DHT22;15074;50.940;5.282;2022-11-25T03:20:09;8.70;99.90
27667;DHT22;15074;50.940;5.282;2022-11-25T03:22:37;8.70;99.90
27667;DHT22;15074;50.940;5.282;2022-11-25T03:25:03;8.70;99.90
27667;DHT22;15074;50.940;5.282;2022-11-25T03:27:28;8.70;99.90
27667;DHT22;15074;50.940;5.282;2022-11-25T03:29:54;8.60;99.90
27667;DHT22;15074;50.940;5.282;2022-11-25T03:32:20;8.60;99.90
27667;DHT22;15074;50.940;5.282;2022-11-25T03:34:45;8.60;99.90
27667;DHT22;15074;50.940;5.282;2022-11-25T03:37:11;8.60;99.90
27667;DHT22;15074;50.940;5.282;2022-11-25T03:39:37;8.60;99.90
27667;DHT22;15074;50.940;5.282;2022-11-25T03:42:02;8.50;99.90
27667;DHT22;15074;50.940;5.282;2022-11-25T03:44:28;8.50;99.90
27667;DHT22;15074;50.940;5.282;2022-11-25T03:46:53;8.50;99.90
27667;DHT22;15074;50.940;5.282;2022-11-25T03:49:19;8.50;99.90
27667;DHT22;15074;50.940;5.282;2022-11-25T03:51:46;8.50;99.90
27667;DHT22;15074;50.940;5.282;2022-11-25T03:54:12;8.50;99.90
27667;DHT22;15074;50.940;5.282;2022-11-25T03:56:38;8.50;99.90
27667;DHT22;15074;50.940;5.282;2022-11-25T03:59:03;8.60;99.90
27667;DHT22;15074;50.940;5.282;2022-11-25T04:01:29;8.60;99.90
27667;DHT22;15074;50.940;5.282;2022-11-25T04:03:55;8.60;99.90
27667;DHT22;15074;50.940;5.282;2022-11-25T04:06:20;8.60;99.90
27667;DHT22;15074;50.940;5.282;2022-11-25T04:08:51;8.60;99.90
27667;DHT22;15074;50.940;5.282;2022-11-25T04:11:16;8.60;99.90
27667;DHT22;15074;50.940;5.282;2022-11-25T04:13:42;8.60;99.90
27667;DHT22;15074;50.940;5.282;2022-11-25T04:16:34;8.40;99.90
27667;DHT22;15074;50.940;5.282;2022-11-25T04:19:00;8.40;99.90
27667;DHT22;15074;50.940;5.282;2022-11-25T04:21:25;8.40;99.90
27667;DHT22;15074;50.940;5.282;2022-11-25T04:23:51;8.40;99.90
27667;DHT22;15074;50.940;5.282;2022-11-25T04:26:17;8.40;99.90
27667;DHT22;15074;50.940;5.282;2022-11-25T04:28:42;8.20;99.90
27667;DHT22;15074;50.940;5.282;2022-11-25T04:31:08;8.10;99.90
27667;DHT22;15074;50.940;5.282;2022-11-25T04:33:34;7.90;99.90
27667;DHT22;15074;50.940;5.282;2022-11-25T04:36:00;7.90;99.90
27667;DHT22;15074;50.940;5.282;2022-11-25T04:38:25;7.90;99.90
27667;DHT22;15074;50.940;5.282;2022-11-25T04:40:51;7.70;99.90
27667;DHT22;15074;50.940;5.282;2022-11-25T04:43:16;7.80;99.90
27667;DHT22;15074;50.940;5.282;2022-11-25T04:45:42;7.80;99.90
27667;DHT22;15074;50.940;5.282;2022-11-25T04:48:09;7.80;99.90
27667;DHT22;15074;50.940;5.282;2022-11-25T04:50:34;7.80;99.90
27667;DHT22;15074;50.940;5.282;2022-11-25T04:53:00;7.70;99.90
27667;DHT22;15074;50.940;5.282;2022-11-25T04:55:26;7.70;99.90
27667;DHT22;15074;50.940;5.282;2022-11-25T04:57:51;7.70;99.90
27667;DHT22;15074;50.940;5.282;2022-11-25T05:00:17;7.60;99.90
27667;DHT22;15074;50.940;5.282;2022-11-25T05:02:43;7.60;99.90
27667;DHT22;15074;50.940;5.282;2022-11-25T05:05:09;7.70;99.90
27667;DHT22;15074;50.940;5.282;2022-11-25T05:07:34;7.70;99.90
27667;DHT22;15074;50.940;5.282;2022-11-25T05:10:00;7.70;99.90
27667;DHT22;15074;50.940;5.282;2022-11-25T05:12:27;7.80;99.90
27667;DHT22;15074;50.940;5.282;2022-11-25T05:14:53;7.80;99.90
27667;DHT22;15074;50.940;5.282;2022-11-25T05:17:25;7.90;99.90
27667;DHT22;15074;50.940;5.282;2022-11-25T05:19:51;7.90;99.90
27667;DHT22;15074;50.940;5.282;2022-11-25T05:22:19;7.90;99.90
27667;DHT22;15074;50.940;5.282;2022-11-25T05:24:45;8.00;99.90
27667;DHT22;15074;50.940;5.282;2022-11-25T05:27:12;8.00;99.90
27667;DHT22;15074;50.940;5.282;2022-11-25T05:29:38;8.00;99.90
27667;DHT22;15074;50.940;5.282;2022-11-25T05:32:04;8.00;99.90
27667;DHT22;15074;50.940;5.282;2022-11-25T05:34:30;8.00;99.90
27667;DHT22;15074;50.940;5.282;2022-11-25T05:36:56;8.00;99.90
27667;DHT22;15074;50.940;5.282;2022-11-25T05:39:22;8.10;99.90
27667;DHT22;15074;50.940;5.282;2022-11-25T05:41:47;8.00;99.90
27667;DHT22;15074;50.940;5.282;2022-11-25T05:44:13;8.10;99.90
27667;DHT22;15074;50.940;5.282;2022-11-25T05:46:39;8.10;99.90
27667;DHT22;15074;50.940;5.282;2022-11-25T05:49:04;8.10;99.90
27667;DHT22;15074;50.940;5.282;2022-11-25T05:51:30;8.10;99.90
27667;DHT22;15074;50.940;5.282;2022-11-25T05:53:56;8.10;99.90
27667;DHT22;15074;50.940;5.282;2022-11-25T05:56:22;8.10;99.90
27667;DHT22;15074;50.940;5.282;2022-11-25T05:58:48;8.10;99.90
27667;DHT22;15074;50.940;5.282;2022-11-25T06:01:15;8.00;99.90
27667;DHT22;15074;50.940;5.282;2022-11-25T06:03:42;8.00;99.90
27667;DHT22;15074;50.940;5.282;2022-11-25T06:06:08;8.00;99.90
27667;DHT22;15074;50.940;5.282;2022-11-25T06:08:35;7.90;99.90
27667;DHT22;15074;50.940;5.282;2022-11-25T06:11:10;7.90;99.90
27667;DHT22;15074;50.940;5.282;2022-11-25T06:13:36;7.90;99.90
27667;DHT22;15074;50.940;5.282;2022-11-25T06:16:11;7.80;99.90
27667;DHT22;15074;50.940;5.282;2022-11-25T06:18:37;7.70;99.90
27667;DHT22;15074;50.940;5.282;2022-11-25T06:21:04;7.70;99.90
27667;DHT22;15074;50.940;5.282;2022-11-25T06:23:30;7.70;99.90
27667;DHT22;15074;50.940;5.282;2022-11-25T06:26:06;7.60;99.90
27667;DHT22;15074;50.940;5.282;2022-11-25T06:28:33;7.50;99.90
27667;DHT22;15074;50.940;5.282;2022-11-25T06:31:13;7.60;99.90
27667;DHT22;15074;50.940;5.282;2022-11-25T06:33:39;7.60;99.90
27667;DHT22;15074;50.940;5.282;2022-11-25T06:36:07;7.60;99.90
27667;DHT22;15074;50.940;5.282;2022-11-25T06:38:33;7.60;99.90
27667;DHT22;15074;50.940;5.282;2022-11-25T06:41:03;7.60;99.90
27667;DHT22;15074;50.940;5.282;2022-11-25T06:43:30;7.60;99.90
27667;DHT22;15074;50.940;5.282;2022-11-25T06:46:14;7.70;99.90
27667;DHT22;15074;50.940;5.282;2022-11-25T06:48:40;7.60;99.90
27667;DHT22;15074;50.940;5.282;2022-11-25T06:51:08;7.50;99.90
27667;DHT22;15074;50.940;5.282;2022-11-25T06:53:35;7.60;99.90
27667;DHT22;15074;50.940;5.282;2022-11-25T06:56:19;7.60;99.90
27667;DHT22;15074;50.940;5.282;2022-11-25T06:58:46;7.60;99.90
27667;DHT22;15074;50.940;5.282;2022-11-25T07:01:17;7.70;99.90
27667;DHT22;15074;50.940;5.282;2022-11-25T07:03:47;7.60;99.90
27667;DHT22;15074;50.940;5.282;2022-11-25T07:06:14;7.60;99.90
27667;DHT22;15074;50.940;5.282;2022-11-25T07:08:41;7.60;99.90
27667;DHT22;15074;50.940;5.282;2022-11-25T07:13:39;7.60;99.90
27667;DHT22;15074;50.940;5.282;2022-11-25T07:16:06;7.60;99.90
27667;DHT22;15074;50.940;5.282;2022-11-25T07:18:34;7.60;99.90
27667;DHT22;15074;50.940;5.282;2022-11-25T07:21:01;7.60;99.90
27667;DHT22;15074;50.940;5.282;2022-11-25T07:23:27;7.60;99.90
27667;DHT22;15074;50.940;5.282;2022-11-25T07:25:52;7.60;99.90
27667;DHT22;15074;50.940;5.282;2022-11-25T07:28:18;7.60;99.90
27667;DHT22;15074;50.940;5.282;2022-11-25T07:30:43;7.60;99.90
27667;DHT22;15074;50.940;5.282;2022-11-25T07:33:09;7.60;99.90
27667;DHT22;15074;50.940;5.282;2022-11-25T07:35:35;7.60;99.90
27667;DHT22;15074;50.940;5.282;2022-11-25T07:38:00;7.70;99.90
27667;DHT22;15074;50.940;5.282;2022-11-25T07:40:26;7.70;99.90
27667;DHT22;15074;50.940;5.282;2022-11-25T07:42:51;7.80;99.90
27667;DHT22;15074;50.940;5.282;2022-11-25T07:45:17;7.80;99.90
27667;DHT22;15074;50.940;5.282;2022-11-25T07:47:43;7.80;99.90
27667;DHT22;15074;50.940;5.282;2022-11-25T07:50:09;7.80;99.90
27667;DHT22;15074;50.940;5.282;2022-11-25T07:52:37;7.90;99.90
27667;DHT22;15074;50.940;5.282;2022-11-25T07:55:03;7.90;99.90
27667;DHT22;15074;50.940;5.282;2022-11-25T07:57:29;8.00;99.90
27667;DHT22;15074;50.940;5.282;2022-11-25T07:59:55;8.00;99.90
27667;DHT22;15074;50.940;5.282;2022-11-25T08:02:20;8.10;99.90
27667;DHT22;15074;50.940;5.282;2022-11-25T08:04:46;8.10;99.90
27667;DHT22;15074;50.940;5.282;2022-11-25T08:07:11;8.10;99.90
27667;DHT22;15074;50.940;5.282;2022-11-25T08:09:37;8.10;99.90
27667;DHT22;15074;50.940;5.282;2022-11-25T08:12:03;8.20;99.90
27667;DHT22;15074;50.940;5.282;2022-11-25T08:14:28;8.20;99.90
27667;DHT22;15074;50.940;5.282;2022-11-25T08:16:54;8.20;99.90
27667;DHT22;15074;50.940;5.282;2022-11-25T08:19:20;8.30;99.90
27667;DHT22;15074;50.940;5.282;2022-11-25T08:21:46;8.30;99.90
27667;DHT22;15074;50.940;5.282;2022-11-25T08:24:17;8.40;99.90
27667;DHT22;15074;50.940;5.282;2022-11-25T08:26:42;8.70;99.90
27667;DHT22;15074;50.940;5.282;2022-11-25T08:29:12;9.00;99.90
27667;DHT22;15074;50.940;5.282;2022-11-25T08:31:38;9.40;99.90
27667;DHT22;15074;50.940;5.282;2022-11-25T08:34:05;9.90;99.90
27667;DHT22;15074;50.940;5.282;2022-11-25T08:36:32;10.20;99.90
27667;DHT22;15074;50.940;5.282;2022-11-25T08:39:00;10.60;99.90
27667;DHT22;15074;50.940;5.282;2022-11-25T08:41:28;11.20;99.90
27667;DHT22;15074;50.940;5.282;2022-11-25T08:43:55;11.60;99.90
27667;DHT22;15074;50.940;5.282;2022-11-25T08:46:24;12.00;99.90
27667;DHT22;15074;50.940;5.282;2022-11-25T08:48:50;12.10;99.90
27667;DHT22;15074;50.940;5.282;2022-11-25T08:51:20;12.10;99.90
27667;DHT22;15074;50.940;5.282;2022-11-25T08:53:46;12.30;99.90
27667;DHT22;15074;50.940;5.282;2022-11-25T08:56:12;12.00;99.90
27667;DHT22;15074;50.940;5.282;2022-11-25T08:58:39;11.20;99.90
27667;DHT22;15074;50.940;5.282;2022-11-25T09:01:06;11.60;99.90
27667;DHT22;15074;50.940;5.282;2022-11-25T09:03:34;12.10;99.90
27667;DHT22;15074;50.940;5.282;2022-11-25T09:06:01;12.40;99.90
27667;DHT22;15074;50.940;5.282;2022-11-25T09:08:27;12.80;99.90
27667;DHT22;15074;50.940;5.282;2022-11-25T09:10:53;13.40;99.90
27667;DHT22;15074;50.940;5.282;2022-11-25T09:13:18;13.60;99.90
27667;DHT22;15074;50.940;5.282;2022-11-25T09:15:44;13.90;99.90
27667;DHT22;15074;50.940;5.282;2022-11-25T09:18:10;14.20;99.90
27667;DHT22;15074;50.940;5.282;2022-11-25T09:20:38;14.50;99.90
27667;DHT22;15074;50.940;5.282;2022-11-25T09:23:05;14.60;99.90
27667;DHT22;15074;50.940;5.282;2022-11-25T09:25:31;14.40;99.90
27667;DHT22;15074;50.940;5.282;2022-11-25T09:27:56;14.30;99.90
27667;DHT22;15074;50.940;5.282;2022-11-25T09:30:23;13.70;99.90
27667;DHT22;15074;50.940;5.282;2022-11-25T09:32:50;13.50;99.90
27667;DHT22;15074;50.940;5.282;2022-11-25T09:35:17;13.90;99.90
27667;DHT22;15074;50.940;5.282;2022-11-25T09:37:42;13.90;99.90
27667;DHT22;15074;50.940;5.282;2022-11-25T09:40:17;14.80;99.90
27667;DHT22;15074;50.940;5.282;2022-11-25T09:46:08;15.60;99.90
27667;DHT22;15074;50.940;5.282;2022-11-25T09:49:29;14.90;99.90
27667;DHT22;15074;50.940;5.282;2022-11-25T09:52:05;15.20;99.90
27667;DHT22;15074;50.940;5.282;2022-11-25T09:54:37;15.40;99.90
27667;DHT22;15074;50.940;5.282;2022-11-25T10:02:36;16.30;99.90
27667;DHT22;15074;50.940;5.282;2022-11-25T10:05:15;16.10;99.90
27667;DHT22;15074;50.940;5.282;2022-11-25T10:07:48;16.30;99.90
27667;DHT22;15074;50.940;5.282;2022-11-25T10:10:34;15.70;99.90
27667;DHT22;15074;50.940;5.282;2022-11-25T10:13:03;15.60;99.90
27667;DHT22;15074;50.940;5.282;2022-11-25T10:15:34;16.30;99.90
27667;DHT22;15074;50.940;5.282;2022-11-25T10:18:37;15.90;99.90
27667;DHT22;15074;50.940;5.282;2022-11-25T10:21:04;15.80;99.90
27667;DHT22;15074;50.940;5.282;2022-11-25T10:23:33;15.10;99.90
27667;DHT22;15074;50.940;5.282;2022-11-25T10:26:02;15.10;99.90
27667;DHT22;15074;50.940;5.282;2022-11-25T10:28:35;14.70;99.90
27667;DHT22;15074;50.940;5.282;2022-11-25T10:33:54;14.60;99.90
27667;DHT22;15074;50.940;5.282;2022-11-25T10:36:37;15.30;99.90
27667;DHT22;15074;50.940;5.282;2022-11-25T10:39:18;15.30;99.90
27667;DHT22;15074;50.940;5.282;2022-11-25T10:52:38;18.30;99.90
27667;DHT22;15074;50.940;5.282;2022-11-25T10:55:12;18.10;99.90
27667;DHT22;15074;50.940;5.282;2022-11-25T10:57:38;18.40;99.90
27667;DHT22;15074;50.940;5.282;2022-11-25T11:00:07;18.70;99.90
27667;DHT22;15074;50.940;5.282;2022-11-25T11:02:47;18.60;99.90
27667;DHT22;15074;50.940;5.282;2022-11-25T11:05:27;18.10;99.90
27667;DHT22;15074;50.940;5.282;2022-11-25T11:08:27;17.90;99.90
27667;DHT22;15074;50.940;5.282;2022-11-25T11:11:19;18.50;99.90
27667;DHT22;15074;50.940;5.282;2022-11-25T11:13:46;18.30;99.90
27667;DHT22;15074;50.940;5.282;2022-11-25T11:18:50;17.60;99.90
27667;DHT22;15074;50.940;5.282;2022-11-25T11:21:27;17.70;99.90
27667;DHT22;15074;50.940;5.282;2022-11-25T11:23:54;17.80;99.90
27667;DHT22;15074;50.940;5.282;2022-11-25T11:26:38;18.00;99.90
27667;DHT22;15074;50.940;5.282;2022-11-25T11:29:15;16.80;99.90
27667;DHT22;15074;50.940;5.282;2022-11-25T11:31:47;16.70;99.90
27667;DHT22;15074;50.940;5.282;2022-11-25T11:40:26;15.90;99.90
27667;DHT22;15074;50.940;5.282;2022-11-25T11:46:08;14.80;99.90
27667;DHT22;15074;50.940;5.282;2022-11-25T11:48:44;14.20;99.90
27667;DHT22;15074;50.940;5.282;2022-11-25T11:51:49;13.50;99.90
27667;DHT22;15074;50.940;5.282;2022-11-25T11:54:21;13.40;99.90
27667;DHT22;15074;50.940;5.282;2022-11-25T11:57:10;13.40;99.90
27667;DHT22;15074;50.940;5.282;2022-11-25T11:59:53;13.40;99.90
27667;DHT22;15074;50.940;5.282;2022-11-25T12:02:37;13.20;99.90
27667;DHT22;15074;50.940;5.282;2022-11-25T12:07:46;14.60;99.90
27667;DHT22;15074;50.940;5.282;2022-11-25T12:10:32;15.90;99.90
27667;DHT22;15074;50.940;5.282;2022-11-25T12:18:53;17.90;99.90
27667;DHT22;15074;50.940;5.282;2022-11-25T12:24:09;17.80;99.90
27667;DHT22;15074;50.940;5.282;2022-11-25T12:26:46;18.00;99.90
27667;DHT22;15074;50.940;5.282;2022-11-25T12:29:56;17.60;99.90
27667;DHT22;15074;50.940;5.282;2022-11-25T12:40:46;17.40;99.90
27667;DHT22;15074;50.940;5.282;2022-11-25T12:43:28;17.00;99.90
27667;DHT22;15074;50.940;5.282;2022-11-25T12:46:14;17.00;99.90
27667;DHT22;15074;50.940;5.282;2022-11-25T12:48:42;17.00;99.90
27667;DHT22;15074;50.940;5.282;2022-11-25T13:00:15;17.10;99.90
27667;DHT22;15074;50.940;5.282;2022-11-25T13:11:29;16.90;99.90
27667;DHT22;15074;50.940;5.282;2022-11-25T13:14:23;17.10;99.90
27667;DHT22;15074;50.940;5.282;2022-11-25T13:16:51;16.60;99.90
27667;DHT22;15074;50.940;5.282;2022-11-25T13:19:18;16.60;99.90
27667;DHT22;15074;50.940;5.282;2022-11-25T13:24:48;16.30;99.90
27667;DHT22;15074;50.940;5.282;2022-11-25T13:30:21;16.60;99.90
27667;DHT22;15074;50.940;5.282;2022-11-25T13:32:51;16.50;99.90
27667;DHT22;15074;50.940;5.282;2022-11-25T13:37:51;16.20;99.90
27667;DHT22;15074;50.940;5.282;2022-11-25T13:40:35;15.80;99.90
27667;DHT22;15074;50.940;5.282;2022-11-25T13:43:03;16.40;99.90
27667;DHT22;15074;50.940;5.282;2022-11-25T13:45:41;16.30;99.90
27667;DHT22;15074;50.940;5.282;2022-11-25T13:50:42;15.60;99.90
27667;DHT22;15074;50.940;5.282;2022-11-25T13:55:49;15.60;99.90
27667;DHT22;15074;50.940;5.282;2022-11-25T13:58:21;15.80;99.90
27667;DHT22;15074;50.940;5.282;2022-11-25T14:01:18;15.50;99.90
27667;DHT22;15074;50.940;5.282;2022-11-25T14:03:46;14.70;99.90
27667;DHT22;15074;50.940;5.282;2022-11-25T14:09:14;14.50;99.90
27667;DHT22;15074;50.940;5.282;2022-11-25T14:14:37;13.80;99.90
27667;DHT22;15074;50.940;5.282;2022-11-25T14:25:41;13.60;99.90
27667;DHT22;15074;50.940;5.282;2022-11-25T14:31:18;13.30;99.90
27667;DHT22;15074;50.940;5.282;2022-11-25T14:36:52;13.20;99.90
27667;DHT22;15074;50.940;5.282;2022-11-25T14:39:29;13.30;99.90
27667;DHT22;15074;50.940;5.282;2022-11-25T14:42:02;13.10;99.90
27667;DHT22;15074;50.940;5.282;2022-11-25T14:44:52;13.10;99.90
27667;DHT22;15074;50.940;5.282;2022-11-25T14:47:25;13.00;99.90
27667;DHT22;15074;50.940;5.282;2022-11-25T14:49:53;12.90;99.90
27667;DHT22;15074;50.940;5.282;2022-11-25T14:52:24;12.70;99.90
27667;DHT22;15074;50.940;5.282;2022-11-25T14:54:53;12.40;99.90
27667;DHT22;15074;50.940;5.282;2022-11-25T14:57:23;12.40;99.90
27667;DHT22;15074;50.940;5.282;2022-11-25T14:59:50;12.30;99.90
27667;DHT22;15074;50.940;5.282;2022-11-25T15:02:30;12.30;99.90
27667;DHT22;15074;50.940;5.282;2022-11-25T15:07:42;12.20;99.90
27667;DHT22;15074;50.940;5.282;2022-11-25T15:10:40;12.30;99.90
27667;DHT22;15074;50.940;5.282;2022-11-25T15:13:12;12.20;99.90
27667;DHT22;15074;50.940;5.282;2022-11-25T15:15:38;12.30;99.90
27667;DHT22;15074;50.940;5.282;2022-11-25T15:18:05;12.20;99.90
27667;DHT22;15074;50.940;5.282;2022-11-25T15:20:31;12.20;99.90
27667;DHT22;15074;50.940;5.282;2022-11-25T15:22:59;12.10;99.90
27667;DHT22;15074;50.940;5.282;2022-11-25T15:25:25;12.00;99.90
27667;DHT22;15074;50.940;5.282;2022-11-25T15:27:52;12.00;99.90
27667;DHT22;15074;50.940;5.282;2022-11-25T15:30:20;11.90;99.90
27667;DHT22;15074;50.940;5.282;2022-11-25T15:32:47;11.80;99.90
27667;DHT22;15074;50.940;5.282;2022-11-25T15:35:21;11.80;99.90
27667;DHT22;15074;50.940;5.282;2022-11-25T15:37:48;11.60;99.90
27667;DHT22;15074;50.940;5.282;2022-11-25T15:40:37;11.50;99.90
27667;DHT22;15074;50.940;5.282;2022-11-25T15:43:28;11.30;99.90
27667;DHT22;15074;50.940;5.282;2022-11-25T15:45:58;11.30;99.90
27667;DHT22;15074;50.940;5.282;2022-11-25T15:48:40;11.20;99.90
27667;DHT22;15074;50.940;5.282;2022-11-25T15:53:44;10.80;99.90
27667;DHT22;15074;50.940;5.282;2022-11-25T15:56:17;10.80;99.90
27667;DHT22;15074;50.940;5.282;2022-11-25T15:58:44;10.70;99.90
27667;DHT22;15074;50.940;5.282;2022-11-25T16:01:21;10.60;99.90
27667;DHT22;15074;50.940;5.282;2022-11-25T16:03:47;10.50;99.90
27667;DHT22;15074;50.940;5.282;2022-11-25T16:06:25;10.50;99.90
27667;DHT22;15074;50.940;5.282;2022-11-25T16:08:59;10.50;99.90
27667;DHT22;15074;50.940;5.282;2022-11-25T16:11:26;10.40;99.90
27667;DHT22;15074;50.940;5.282;2022-11-25T16:14:24;10.40;99.90
27667;DHT22;15074;50.940;5.282;2022-11-25T16:17:00;10.30;99.90
27667;DHT22;15074;50.940;5.282;2022-11-25T16:19:39;10.20;99.90
27667;DHT22;15074;50.940;5.282;2022-11-25T16:22:11;10.10;99.90
27667;DHT22;15074;50.940;5.282;2022-11-25T16:24:47;10.10;99.90
27667;DHT22;15074;50.940;5.282;2022-11-25T16:27:17;10.10;99.90
27667;DHT22;15074;50.940;5.282;2022-11-25T16:32:21;10.10;99.90
27667;DHT22;15074;50.940;5.282;2022-11-25T16:34:47;10.00;99.90
27667;DHT22;15074;50.940;5.282;2022-11-25T16:37:13;10.10;99.90
27667;DHT22;15074;50.940;5.282;2022-11-25T16:39:38;10.10;99.90
27667;DHT22;15074;50.940;5.282;2022-11-25T16:42:04;10.20;99.90
27667;DHT22;15074;50.940;5.282;2022-11-25T16:44:32;10.20;99.90
27667;DHT22;15074;50.940;5.282;2022-11-25T16:47:00;10.40;99.90
27667;DHT22;15074;50.940;5.282;2022-11-25T16:49:29;10.40;99.90
27667;DHT22;15074;50.940;5.282;2022-11-25T16:51:54;10.40;99.90
27667;DHT22;15074;50.940;5.282;2022-11-25T16:54:21;10.40;99.90
27667;DHT22;15074;50.940;5.282;2022-11-25T16:56:52;10.40;99.90
27667;DHT22;15074;50.940;5.282;2022-11-25T16:59:27;10.50;99.90
27667;DHT22;15074;50.940;5.282;2022-11-25T17:01:53;10.50;99.90
27667;DHT22;15074;50.940;5.282;2022-11-25T17:04:19;10.60;99.90
27667;DHT22;15074;50.940;5.282;2022-11-25T17:06:45;10.70;99.90
27667;DHT22;15074;50.940;5.282;2022-11-25T17:09:11;10.70;99.90
27667;DHT22;15074;50.940;5.282;2022-11-25T17:11:43;10.60;99.90
27667;DHT22;15074;50.940;5.282;2022-11-25T17:14:29;10.50;99.90
27667;DHT22;15074;50.940;5.282;2022-11-25T17:16:57;10.50;99.90
27667;DHT22;15074;50.940;5.282;2022-11-25T17:19:23;10.40;99.90
27667;DHT22;15074;50.940;5.282;2022-11-25T17:21:49;10.40;99.90
27667;DHT22;15074;50.940;5.282;2022-11-25T17:24:23;10.40;99.90
27667;DHT22;15074;50.940;5.282;2022-11-25T17:27:01;10.30;99.90
27667;DHT22;15074;50.940;5.282;2022-11-25T17:29:34;10.20;99.90
27667;DHT22;15074;50.940;5.282;2022-11-25T17:32:02;10.20;99.90
27667;DHT22;15074;50.940;5.282;2022-11-25T17:34:28;10.10;99.90
27667;DHT22;15074;50.940;5.282;2022-11-25T17:36:54;10.10;99.90
27667;DHT22;15074;50.940;5.282;2022-11-25T17:39:20;10.10;99.90
27667;DHT22;15074;50.940;5.282;2022-11-25T17:41:48;10.10;99.90
27667;DHT22;15074;50.940;5.282;2022-11-25T17:44:24;10.10;99.90
27667;DHT22;15074;50.940;5.282;2022-11-25T17:46:51;10.10;99.90
27667;DHT22;15074;50.940;5.282;2022-11-25T17:49:18;9.90;99.90
27667;DHT22;15074;50.940;5.282;2022-11-25T17:51:44;9.80;99.90
27667;DHT22;15074;50.940;5.282;2022-11-25T17:54:10;9.80;99.90
27667;DHT22;15074;50.940;5.282;2022-11-25T17:56:36;9.70;99.90
27667;DHT22;15074;50.940;5.282;2022-11-25T17:59:09;9.50;99.90
27667;DHT22;15074;50.940;5.282;2022-11-25T18:01:35;9.40;99.90